This demonstration page uses our WeatherBlox Daily Observations layout. Learn more.

41.55636, -103.73856

Hourly Observations for January 3, 2019

Temp ( °F °C ) Dew Point ( °F °C ) Humidity (%) Winds ( mph kmh ) Pressure ( in mb ) Visibility ( mi km ) Precip ( " mm )
12:53 am 00:53 Clear 20 -6.7 10 -12.2 65 65 NW 10 17 30.06 1018 10 16.09344 0 0
1:53 am 01:53 Clear 15 -9.4 8 -13.3 74 74 NW 7 11 30.09 1019 10 16.09344 0 0
2:53 am 02:53 Clear 15 -9.4 8 -13.3 74 74 NW 7 11 30.06 1018 10 16.09344 0 0
3:53 am 03:53 Clear 12 -11.1 7 -13.9 80 80 Calm 30.06 1018 10 16.09344 0 0
4:53 am 04:53 Clear 14 -10 9 -12.8 80 80 NW 3 6 30.06 1018 10 16.09344 0 0
5:53 am 05:53 Clear 13 -10.6 9 -12.8 84 84 NW 8 13 30.09 1019 10 16.09344 0 0
6:53 am 06:53 Clear 17 -8.3 10 -12.2 74 74 WNW 7 11 30.06 1018 10 16.09344 0 0
7:53 am 07:53 Sunny 22 -5.6 13 -10.6 68 68 N 7 11 30.09 1019 10 16.09344 0 0
8:53 am 08:53 Sunny 29 -1.7 17 -8.3 61 61 WNW 7 11 30.09 1019 10 16.09344 0 0
9:53 am 09:53 Sunny 35 1.7 18 -7.8 50 50 WNW 10 17 30.06 1018 10 16.09344 0 0
10:53 am 10:53 Sunny 42 5.6 21 -6.1 43 43 WNW 15 24 30.03 1017 10 16.09344 0 0
11:53 am 11:53 Sunny 46 7.8 23 -5 40 40 NW 13 20 30 1016 10 16.09344 0 0
12:53 pm 12:53 Sunny 51 10.6 23 -5 33 33 WNW 17 28 29.94 1014 10 16.09344 0 0
1:53 pm 13:53 Sunny 53 11.7 24 -4.4 32 32 W 16 26 29.94 1014 10 16.09344 0 0
2:53 pm 14:53 Sunny 52 11.1 23 -5 32 32 W 18 30 29.94 1014 10 16.09344 0 0
3:53 pm 15:53 Sunny 49 9.4 23 -5 36 36 W 18 30 29.97 1015 10 16.09344 0 0
4:53 pm 16:53 Clear 42 5.6 22 -5.6 45 45 W 12 19 29.97 1015 10 16.09344 0 0
5:53 pm 17:53 Clear 40 4.4 22 -5.6 49 49 WNW 12 19 30 1016 10 16.09344 0 0
6:53 pm 18:53 Clear 39 3.9 22 -5.6 50 50 NW 13 20 30 1016 10 16.09344 0 0
7:53 pm 19:53 Clear 31 -0.6 20 -6.7 64 64 NNW 7 11 30.03 1017 10 16.09344 0 0
8:53 pm 20:53 Clear 27 -2.8 19 -7.2 72 72 NNW 9 15 30 1016 10 16.09344 0 0
9:53 pm 21:53 Clear 26 -3.3 19 -7.2 75 75 NNW 9 15 30 1016 10 16.09344 0 0
10:53 pm 22:53 Clear 29 -1.7 21 -6.1 72 72 NNW 7 11 29.97 1015 10 16.09344 0 0
11:53 pm 23:53 Clear 31 -0.6 21 -6.1 67 67 N 3 6 29.94 1014 10 16.09344 0 0

Powered by AerisWeather